Time;durP1;ratioP1;P1;durP2;ratioP2;P2;SDS_P1;SDS_P2;PMS_P1;PMS_P2;Temp;Humidity;BMP_temperature;BMP_pressure;BME280_temperature;BME280_humidity;BME280_pressure;Samples;Min_cycle;Max_cycle;Signal;HPM_P1;HPM_P2
2021/03/06 00:01:50;;;;;;;10.93;5.93;;;;;;;;;;5090115;28;20474;-72
2021/03/06 00:04:16;;;;;;;8.50;6.00;;;;;;;;;;5092930;28;20483;-72
2021/03/06 00:06:42;;;;;;;9.13;6.10;;;;;;;;;;5091429;28;20429;-72
2021/03/06 00:09:08;;;;;;;6.57;5.30;;;;;;;;;;5091809;28;20447;-72
2021/03/06 00:11:34;;;;;;;9.37;6.30;;;;;;;;;;5091776;28;20429;-72
2021/03/06 00:14:00;;;;;;;7.03;5.03;;;;;;;;;;5093112;28;20717;-72
2021/03/06 00:16:26;;;;;;;7.63;5.80;;;;;;;;;;5091810;28;20431;-72
2021/03/06 00:18:52;;;;;;;11.00;5.93;;;;;;;;;;5092865;28;20407;-72
2021/03/06 00:21:18;;;;;;;8.90;5.90;;;;;;;;;;5091730;28;20516;-72
2021/03/06 00:23:44;;;;;;;9.00;6.37;;;;;;;;;;5092746;28;20425;-72
2021/03/06 00:26:10;;;;;;;9.23;6.47;;;;;;;;;;5091889;28;20426;-72
2021/03/06 00:28:36;;;;;;;10.80;7.03;;;;;;;;;;5093003;28;20392;-72
2021/03/06 00:31:02;;;;;;;6.97;5.17;;;;;;;;;;5091735;28;20438;-72
2021/03/06 00:33:28;;;;;;;8.67;6.60;;;;;;;;;;5092915;28;20443;-72
2021/03/06 00:35:54;;;;;;;10.03;7.03;;;;;;;;;;5091718;28;20429;-72
2021/03/06 00:38:20;;;;;;;9.27;6.43;;;;;;;;;;5092519;28;20429;-72
2021/03/06 00:40:46;;;;;;;7.20;5.57;;;;;;;;;;5091553;28;20458;-72
2021/03/06 00:43:12;;;;;;;10.57;6.33;;;;;;;;;;5092391;28;20501;-72
2021/03/06 00:45:38;;;;;;;7.90;6.03;;;;;;;;;;5073525;28;20430;-72
2021/03/06 00:48:04;;;;;;;8.93;6.17;;;;;;;;;;5092729;28;20870;-72
2021/03/06 00:50:32;;;;;;;8.20;6.20;;;;;;;;;;5073635;28;20517;-72
2021/03/06 00:52:58;;;;;;;8.67;6.00;;;;;;;;;;5092201;28;20430;-72
2021/03/06 00:55:24;;;;;;;9.00;6.30;;;;;;;;;;5091705;28;20428;-72
2021/03/06 00:57:50;;;;;;;9.60;6.33;;;;;;;;;;5092458;28;20398;-72
2021/03/06 01:00:17;;;;;;;7.90;5.73;;;;;;;;;;5092936;28;20484;-72
2021/03/06 01:02:43;;;;;;;9.23;5.80;;;;;;;;;;5096070;28;20412;-72
2021/03/06 01:05:09;;;;;;;8.30;5.50;;;;;;;;;;5094894;28;20884;-72
2021/03/06 01:07:35;;;;;;;9.53;5.67;;;;;;;;;;5077812;28;20484;-72
2021/03/06 01:10:02;;;;;;;9.60;6.50;;;;;;;;;;5095250;28;20471;-72
2021/03/06 01:12:28;;;;;;;8.67;6.03;;;;;;;;;;5095956;28;20417;-72
2021/03/06 01:14:54;;;;;;;9.80;6.00;;;;;;;;;;5094717;28;20870;-72
2021/03/06 01:17:20;;;;;;;9.97;6.30;;;;;;;;;;5095312;28;20436;-72
2021/03/06 01:19:46;;;;;;;7.90;6.20;;;;;;;;;;5095845;28;20403;-72
2021/03/06 01:22:12;;;;;;;12.70;5.80;;;;;;;;;;5094628;28;20470;-72
2021/03/06 01:24:38;;;;;;;11.03;5.97;;;;;;;;;;5095812;28;20884;-72
2021/03/06 01:27:04;;;;;;;7.30;5.57;;;;;;;;;;5092474;28;20424;-72
2021/03/06 01:29:30;;;;;;;10.03;6.40;;;;;;;;;;5095819;28;20402;-72
2021/03/06 01:31:56;;;;;;;9.73;6.40;;;;;;;;;;5093748;28;20474;-72
2021/03/06 01:34:22;;;;;;;9.07;6.07;;;;;;;;;;5095619;28;20400;-72
2021/03/06 01:36:48;;;;;;;8.27;5.30;;;;;;;;;;5094955;28;20431;-72
2021/03/06 01:39:15;;;;;;;6.33;4.93;;;;;;;;;;5095634;28;20404;-72
2021/03/06 01:41:41;;;;;;;8.67;6.03;;;;;;;;;;5094276;28;20464;-71
2021/03/06 01:44:07;;;;;;;10.77;6.93;;;;;;;;;;5077498;28;20533;-71
2021/03/06 01:46:33;;;;;;;9.17;5.40;;;;;;;;;;5094564;28;20424;-71
2021/03/06 01:49:00;;;;;;;14.70;5.93;;;;;;;;;;5077177;28;20416;-72
2021/03/06 01:51:26;;;;;;;10.43;6.30;;;;;;;;;;5093041;28;20659;-73
2021/03/06 01:53:53;;;;;;;9.70;5.83;;;;;;;;;;5090590;28;20429;-72
2021/03/06 01:56:19;;;;;;;10.30;6.17;;;;;;;;;;5078177;28;20509;-73
2021/03/06 01:58:45;;;;;;;8.20;5.10;;;;;;;;;;5077286;28;20787;-73
2021/03/06 02:01:11;;;;;;;10.70;6.57;;;;;;;;;;5092909;28;20460;-72
2021/03/06 02:03:37;;;;;;;7.90;5.63;;;;;;;;;;5095134;28;20419;-72
2021/03/06 02:06:03;;;;;;;9.30;6.10;;;;;;;;;;5077795;28;20943;-72
2021/03/06 02:08:29;;;;;;;10.53;5.57;;;;;;;;;;5094929;28;20406;-72
2021/03/06 02:10:55;;;;;;;6.60;5.23;;;;;;;;;;5092058;28;20422;-72
2021/03/06 02:13:28;;;;;;;11.17;5.73;;;;;;;;;;5094669;28;20427;-72
2021/03/06 02:16:03;;;;;;;10.17;7.40;;;;;;;;;;5077382;28;20453;-72
2021/03/06 02:18:31;;;;;;;10.73;6.87;;;;;;;;;;5076743;28;20403;-72
2021/03/06 02:21:03;;;;;;;8.23;6.30;;;;;;;;;;5074489;28;20453;-72
2021/03/06 02:23:29;;;;;;;8.53;5.97;;;;;;;;;;5094672;28;20541;-72
2021/03/06 02:26:07;;;;;;;11.23;7.23;;;;;;;;;;5092803;28;20455;-72
2021/03/06 02:28:45;;;;;;;7.40;5.97;;;;;;;;;;5087252;28;20760;-72
2021/03/06 02:31:12;;;;;;;7.43;5.70;;;;;;;;;;5091822;28;20903;-72
2021/03/06 02:33:40;;;;;;;11.07;5.83;;;;;;;;;;5074068;28;20424;-72
2021/03/06 02:36:09;;;;;;;8.23;5.43;;;;;;;;;;5074060;28;20756;-72
2021/03/06 02:38:36;;;;;;;10.10;5.80;;;;;;;;;;5088753;28;20429;-72
2021/03/06 02:41:02;;;;;;;9.50;6.00;;;;;;;;;;5094115;28;20457;-72
2021/03/06 02:43:29;;;;;;;8.70;5.77;;;;;;;;;;5075518;28;20556;-72
2021/03/06 02:45:57;;;;;;;9.20;5.67;;;;;;;;;;5094444;28;20476;-72
2021/03/06 02:48:23;;;;;;;12.07;6.40;;;;;;;;;;5093520;28;20426;-72
2021/03/06 02:50:55;;;;;;;9.10;6.13;;;;;;;;;;5094520;28;20479;-72
2021/03/06 02:53:22;;;;;;;8.90;6.30;;;;;;;;;;5093334;28;20531;-72
2021/03/06 02:55:48;;;;;;;10.70;5.83;;;;;;;;;;5074418;28;20407;-72
2021/03/06 02:58:24;;;;;;;8.80;5.97;;;;;;;;;;5087111;28;20432;-72
2021/03/06 03:00:52;;;;;;;10.73;6.70;;;;;;;;;;5094844;28;20445;-72
2021/03/06 03:03:23;;;;;;;7.83;6.43;;;;;;;;;;5092768;28;20454;-72
2021/03/06 03:06:01;;;;;;;8.47;5.60;;;;;;;;;;5093888;28;20381;-73
2021/03/06 03:08:35;;;;;;;8.60;5.37;;;;;;;;;;5092695;28;20421;-72
2021/03/06 03:11:03;;;;;;;10.53;6.37;;;;;;;;;;5093710;28;20396;-72
2021/03/06 03:13:36;;;;;;;9.43;6.27;;;;;;;;;;5091683;28;20454;-72
2021/03/06 03:16:13;;;;;;;11.57;7.50;;;;;;;;;;5093565;28;20392;-72
2021/03/06 03:18:44;;;;;;;11.33;6.53;;;;;;;;;;5092489;28;20432;-72
2021/03/06 03:21:12;;;;;;;9.70;5.70;;;;;;;;;;5093802;28;20441;-73
2021/03/06 03:23:47;;;;;;;8.83;6.07;;;;;;;;;;5091498;28;20535;-72
2021/03/06 03:26:14;;;;;;;13.47;6.67;;;;;;;;;;5093127;28;20746;-72
2021/03/06 03:28:42;;;;;;;8.17;5.87;;;;;;;;;;5092404;28;20523;-72
2021/03/06 03:31:09;;;;;;;10.03;5.87;;;;;;;;;;5093313;28;20473;-72
2021/03/06 03:33:35;;;;;;;7.97;5.90;;;;;;;;;;5092203;28;20485;-72
2021/03/06 03:36:03;;;;;;;10.77;6.60;;;;;;;;;;5092918;28;20402;-72
2021/03/06 03:38:29;;;;;;;9.13;5.97;;;;;;;;;;5091940;28;20498;-72
2021/03/06 03:40:55;;;;;;;11.40;7.40;;;;;;;;;;5075712;28;20543;-72
2021/03/06 03:43:23;;;;;;;8.90;5.80;;;;;;;;;;5084541;28;20455;-72
2021/03/06 03:45:49;;;;;;;9.27;6.20;;;;;;;;;;5093136;28;20435;-72
2021/03/06 03:48:16;;;;;;;9.30;6.53;;;;;;;;;;5091016;28;20434;-72
2021/03/06 03:50:42;;;;;;;11.53;5.93;;;;;;;;;;5092926;28;20440;-72
2021/03/06 03:53:12;;;;;;;9.93;6.40;;;;;;;;;;5090651;28;20454;-72
2021/03/06 03:55:38;;;;;;;9.07;6.50;;;;;;;;;;5092866;28;20420;-72
2021/03/06 03:58:04;;;;;;;9.30;5.90;;;;;;;;;;5091790;28;20485;-72
2021/03/06 04:00:30;;;;;;;8.47;5.10;;;;;;;;;;5092519;28;20469;-72
2021/03/06 04:03:00;;;;;;;6.73;4.90;;;;;;;;;;5091771;28;20529;-72
2021/03/06 04:05:26;;;;;;;10.83;6.47;;;;;;;;;;5074399;28;20437;-72
2021/03/06 04:07:52;;;;;;;9.83;6.00;;;;;;;;;;5091434;28;20783;-72
2021/03/06 04:10:20;;;;;;;9.40;6.10;;;;;;;;;;5092687;28;20405;-72
2021/03/06 04:12:47;;;;;;;13.00;6.73;;;;;;;;;;5072758;28;21000;-72
2021/03/06 04:15:14;;;;;;;10.97;6.07;;;;;;;;;;5091316;28;20509;-72
2021/03/06 04:17:41;;;;;;;9.97;5.93;;;;;;;;;;5091624;28;20420;-72
2021/03/06 04:20:08;;;;;;;9.73;6.20;;;;;;;;;;5092595;28;20402;-72
2021/03/06 04:22:34;;;;;;;10.07;5.50;;;;;;;;;;5088609;28;20844;-72
2021/03/06 04:25:00;;;;;;;9.37;6.63;;;;;;;;;;5092389;28;20410;-72
2021/03/06 04:27:26;;;;;;;10.80;7.60;;;;;;;;;;5091732;28;20435;-72
2021/03/06 04:29:52;;;;;;;9.87;6.07;;;;;;;;;;5092803;28;20410;-72
2021/03/06 04:32:18;;;;;;;13.13;5.80;;;;;;;;;;5073253;28;20481;-72
2021/03/06 04:34:44;;;;;;;12.63;5.60;;;;;;;;;;5093532;28;20418;-72
2021/03/06 04:37:10;;;;;;;10.43;6.23;;;;;;;;;;5095712;28;20425;-72
2021/03/06 04:39:36;;;;;;;10.17;6.30;;;;;;;;;;5096539;28;20747;-71
2021/03/06 04:42:02;;;;;;;10.73;6.30;;;;;;;;;;5096224;28;20463;-72
2021/03/06 04:44:28;;;;;;;8.87;5.60;;;;;;;;;;5095383;28;20426;-72
2021/03/06 04:46:54;;;;;;;10.73;6.60;;;;;;;;;;5096561;28;20486;-72
2021/03/06 04:49:20;;;;;;;8.57;5.10;;;;;;;;;;5095521;28;20456;-71
2021/03/06 04:51:46;;;;;;;8.30;6.63;;;;;;;;;;5096333;28;20402;-72
2021/03/06 04:54:12;;;;;;;12.33;6.77;;;;;;;;;;5076413;28;20448;-72
2021/03/06 04:56:38;;;;;;;10.70;7.40;;;;;;;;;;5095775;28;20938;-72
2021/03/06 04:59:04;;;;;;;10.60;6.67;;;;;;;;;;5095108;28;20461;-72
2021/03/06 05:01:31;;;;;;;9.70;5.90;;;;;;;;;;5094340;28;20451;-72
2021/03/06 05:03:56;;;;;;;13.50;7.07;;;;;;;;;;5094930;28;20476;-72
2021/03/06 05:06:22;;;;;;;12.43;7.33;;;;;;;;;;5095977;28;20405;-72
2021/03/06 05:08:48;;;;;;;9.40;6.20;;;;;;;;;;5094969;28;20982;-72
2021/03/06 05:11:14;;;;;;;9.60;6.33;;;;;;;;;;5095931;28;20401;-72
2021/03/06 05:13:40;;;;;;;17.10;6.63;;;;;;;;;;5094355;28;20497;-72
2021/03/06 05:16:07;;;;;;;9.50;5.60;;;;;;;;;;5095799;28;20489;-72
2021/03/06 05:18:33;;;;;;;10.97;6.70;;;;;;;;;;5094706;28;20947;-72
2021/03/06 05:20:59;;;;;;;10.00;7.13;;;;;;;;;;5095788;28;20502;-72
2021/03/06 05:23:26;;;;;;;10.70;6.50;;;;;;;;;;5094602;28;20454;-72
2021/03/06 05:25:52;;;;;;;11.07;5.73;;;;;;;;;;5095612;28;20404;-72
2021/03/06 05:28:22;;;;;;;12.80;6.77;;;;;;;;;;5094520;28;20515;-72
2021/03/06 05:30:48;;;;;;;10.53;6.27;;;;;;;;;;5095827;28;20415;-72
2021/03/06 05:33:15;;;;;;;9.40;6.00;;;;;;;;;;5094451;28;20503;-72
2021/03/06 05:35:41;;;;;;;6.67;5.30;;;;;;;;;;5095546;28;20911;-72
2021/03/06 05:38:07;;;;;;;12.67;7.40;;;;;;;;;;5094562;28;20947;-72
2021/03/06 05:40:37;;;;;;;10.77;6.63;;;;;;;;;;5081088;28;20450;-72
2021/03/06 05:43:03;;;;;;;11.40;6.07;;;;;;;;;;5078189;28;20459;-72
2021/03/06 05:45:29;;;;;;;6.90;5.17;;;;;;;;;;5095101;28;20409;-72
2021/03/06 05:47:57;;;;;;;8.20;5.73;;;;;;;;;;5074958;28;20887;-72
2021/03/06 05:50:23;;;;;;;9.67;5.60;;;;;;;;;;5095270;28;20406;-72
2021/03/06 05:52:50;;;;;;;9.50;6.63;;;;;;;;;;5093757;28;20499;-72
2021/03/06 05:55:17;;;;;;;10.43;5.80;;;;;;;;;;5095227;28;20775;-72
2021/03/06 05:57:43;;;;;;;7.93;6.00;;;;;;;;;;5094058;28;20400;-72
2021/03/06 06:00:10;;;;;;;14.07;5.50;;;;;;;;;;5094661;28;20414;-72
2021/03/06 06:02:37;;;;;;;9.60;6.30;;;;;;;;;;5090235;28;20792;-72
2021/03/06 06:05:03;;;;;;;10.67;6.67;;;;;;;;;;5093609;28;20768;-72
2021/03/06 06:07:31;;;;;;;7.07;4.70;;;;;;;;;;5076763;28;20403;-72
2021/03/06 06:09:57;;;;;;;7.50;5.83;;;;;;;;;;5093637;28;20429;-72
2021/03/06 06:12:23;;;;;;;15.17;6.63;;;;;;;;;;5094657;28;20472;-72
2021/03/06 06:14:49;;;;;;;10.40;5.17;;;;;;;;;;5093693;28;20434;-72
2021/03/06 06:17:15;;;;;;;8.07;5.97;;;;;;;;;;5100731;28;20415;-72
2021/03/06 06:19:41;;;;;;;8.63;6.43;;;;;;;;;;5102693;28;20438;-72
2021/03/06 06:22:24;;;;;;;9.07;5.70;;;;;;;;;;5102953;28;20794;-72
2021/03/06 06:24:50;;;;;;;6.97;5.43;;;;;;;;;;5104718;28;20927;-72
2021/03/06 06:27:23;;;;;;;14.30;5.40;;;;;;;;;;5105352;28;20405;-73
2021/03/06 06:29:51;;;;;;;12.83;6.20;;;;;;;;;;5100583;28;20813;-72
2021/03/06 06:32:21;;;;;;;8.13;5.73;;;;;;;;;;5096925;28;20927;-72
2021/03/06 06:34:57;;;;;;;15.23;6.50;;;;;;;;;;5094897;28;20421;-72
2021/03/06 06:37:23;;;;;;;11.57;5.80;;;;;;;;;;5093398;28;20462;-72
2021/03/06 06:39:49;;;;;;;7.60;5.17;;;;;;;;;;5093770;28;20840;-72
2021/03/06 06:42:15;;;;;;;7.93;5.00;;;;;;;;;;5094221;28;20460;-72
2021/03/06 06:44:53;;;;;;;9.27;5.10;;;;;;;;;;5093258;28;20505;-72
2021/03/06 06:47:19;;;;;;;10.27;5.90;;;;;;;;;;5094090;28;20391;-72
2021/03/06 06:49:45;;;;;;;6.77;5.20;;;;;;;;;;5092967;28;20425;-72
2021/03/06 06:52:11;;;;;;;7.77;5.87;;;;;;;;;;5094465;28;20936;-72
2021/03/06 06:54:37;;;;;;;7.97;5.10;;;;;;;;;;5093167;28;20790;-72
2021/03/06 06:57:06;;;;;;;8.87;5.33;;;;;;;;;;5094195;28;20399;-72
2021/03/06 06:59:33;;;;;;;11.20;5.10;;;;;;;;;;5092676;28;21007;-72
2021/03/06 07:01:59;;;;;;;12.20;5.60;;;;;;;;;;5092309;28;20477;-72
2021/03/06 07:04:25;;;;;;;9.17;5.03;;;;;;;;;;5073466;28;20444;-71
2021/03/06 07:06:58;;;;;;;6.67;4.50;;;;;;;;;;5093036;28;20427;-69
2021/03/06 07:09:24;;;;;;;11.07;5.63;;;;;;;;;;5090994;28;20837;-70
2021/03/06 07:11:50;;;;;;;8.60;5.57;;;;;;;;;;5091727;28;20528;-70
2021/03/06 07:14:34;;;;;;;7.70;4.60;;;;;;;;;;5092390;28;20458;-68
2021/03/06 07:17:01;;;;;;;6.40;4.93;;;;;;;;;;5093007;28;20830;-69
2021/03/06 07:19:30;;;;;;;8.07;4.87;;;;;;;;;;5092503;28;20449;-69
2021/03/06 07:21:56;;;;;;;8.00;5.17;;;;;;;;;;5090057;28;20514;-71
2021/03/06 07:24:22;;;;;;;7.17;4.77;;;;;;;;;;5091781;28;20477;-72
2021/03/06 07:26:51;;;;;;;6.70;4.80;;;;;;;;;;5093080;28;20419;-71
2021/03/06 07:29:17;;;;;;;7.50;4.30;;;;;;;;;;5092263;28;20506;-72
2021/03/06 07:31:44;;;;;;;10.17;5.10;;;;;;;;;;5071016;28;20510;-72
2021/03/06 07:34:12;;;;;;;6.37;4.43;;;;;;;;;;5088103;28;20509;-72
2021/03/06 07:36:38;;;;;;;11.30;5.30;;;;;;;;;;5091399;28;20422;-72
2021/03/06 07:39:06;;;;;;;8.27;5.10;;;;;;;;;;5091164;28;20535;-72
2021/03/06 07:41:35;;;;;;;9.77;6.23;;;;;;;;;;5092739;28;20541;-73
2021/03/06 07:44:01;;;;;;;9.17;4.93;;;;;;;;;;5091073;28;20436;-72
2021/03/06 07:46:27;;;;;;;5.60;4.50;;;;;;;;;;5093124;28;20403;-72
2021/03/06 07:48:54;;;;;;;7.23;4.33;;;;;;;;;;5093052;28;20427;-72
2021/03/06 07:51:21;;;;;;;9.20;5.90;;;;;;;;;;5104342;28;20403;-72
2021/03/06 07:53:47;;;;;;;8.50;4.97;;;;;;;;;;5092028;28;20449;-72
2021/03/06 07:56:14;;;;;;;5.40;4.20;;;;;;;;;;5093515;28;20776;-72
2021/03/06 07:58:50;;;;;;;5.63;4.20;;;;;;;;;;5091663;28;20887;-72
2021/03/06 08:01:34;;;;;;;8.50;4.30;;;;;;;;;;5093024;28;20434;-72
2021/03/06 08:04:01;;;;;;;8.20;5.33;;;;;;;;;;5091920;28;20938;-72
2021/03/06 08:06:28;;;;;;;6.80;4.70;;;;;;;;;;5092928;28;20746;-72
2021/03/06 08:08:55;;;;;;;8.37;4.70;;;;;;;;;;5092107;28;20927;-72
2021/03/06 08:11:22;;;;;;;6.40;4.73;;;;;;;;;;5081740;28;20771;-72
2021/03/06 08:13:48;;;;;;;7.07;4.50;;;;;;;;;;5098619;28;20472;-72
2021/03/06 08:16:21;;;;;;;7.23;4.87;;;;;;;;;;5080694;28;20454;-72
2021/03/06 08:18:50;;;;;;;8.17;4.70;;;;;;;;;;5079810;28;20453;-72
2021/03/06 08:21:28;;;;;;;7.23;4.20;;;;;;;;;;5099692;28;20538;-72
2021/03/06 08:24:23;;;;;;;5.70;4.00;;;;;;;;;;5098577;28;20519;-72
2021/03/06 08:27:02;;;;;;;8.10;4.37;;;;;;;;;;5076776;28;20446;-72
2021/03/06 08:29:28;;;;;;;7.07;4.83;;;;;;;;;;5082819;28;20426;-72
2021/03/06 08:32:03;;;;;;;8.63;4.57;;;;;;;;;;5099770;28;20425;-72
2021/03/06 08:34:29;;;;;;;5.87;4.30;;;;;;;;;;5098624;28;20458;-72
2021/03/06 08:37:19;;;;;;;4.10;3.70;;;;;;;;;;5099697;28;20431;-72
2021/03/06 08:39:58;;;;;;;6.60;4.57;;;;;;;;;;5091362;28;20940;-72
2021/03/06 08:42:31;;;;;;;6.60;3.90;;;;;;;;;;5099798;28;20466;-71
2021/03/06 08:44:59;;;;;;;8.67;4.43;;;;;;;;;;5097371;28;20445;-72
2021/03/06 08:47:28;;;;;;;5.60;3.90;;;;;;;;;;5099399;28;20398;-72
2021/03/06 08:49:55;;;;;;;5.97;3.53;;;;;;;;;;5098382;28;20936;-72
2021/03/06 08:52:22;;;;;;;6.80;4.00;;;;;;;;;;5099441;28;20518;-72
2021/03/06 08:54:48;;;;;;;7.30;4.40;;;;;;;;;;5098411;28;20433;-72
2021/03/06 08:57:33;;;;;;;9.23;3.80;;;;;;;;;;5099728;28;20409;-72
2021/03/06 09:00:00;;;;;;;6.53;4.23;;;;;;;;;;5080458;28;20430;-72
2021/03/06 09:02:27;;;;;;;5.50;3.50;;;;;;;;;;5099473;28;21020;-72
2021/03/06 09:05:03;;;;;;;4.73;4.20;;;;;;;;;;5098600;28;20492;-72
2021/03/06 09:07:30;;;;;;;6.53;4.07;;;;;;;;;;5079119;28;20449;-72
2021/03/06 09:09:56;;;;;;;6.47;4.30;;;;;;;;;;5072390;28;20424;-72
2021/03/06 09:12:22;;;;;;;7.20;4.00;;;;;;;;;;5081134;28;20434;-72
2021/03/06 09:14:48;;;;;;;5.27;3.77;;;;;;;;;;5080079;28;20436;-72
2021/03/06 09:17:14;;;;;;;6.80;3.57;;;;;;;;;;5099250;28;20490;-72
2021/03/06 09:19:40;;;;;;;6.57;4.20;;;;;;;;;;5097258;28;20946;-72
2021/03/06 09:22:08;;;;;;;7.83;4.30;;;;;;;;;;5096764;28;20471;-72
2021/03/06 09:24:50;;;;;;;7.57;3.90;;;;;;;;;;5092970;28;20457;-72
2021/03/06 09:27:16;;;;;;;5.90;3.80;;;;;;;;;;5077824;28;20400;-72
2021/03/06 09:29:43;;;;;;;6.83;4.53;;;;;;;;;;5094729;28;20483;-71
2021/03/06 09:32:09;;;;;;;5.63;4.17;;;;;;;;;;5095843;28;20451;-72
2021/03/06 09:34:36;;;;;;;5.67;4.20;;;;;;;;;;5095066;28;20398;-71
2021/03/06 09:37:17;;;;;;;7.67;4.70;;;;;;;;;;5096060;28;20408;-71
2021/03/06 09:39:44;;;;;;;7.77;4.20;;;;;;;;;;5085397;28;20494;-72
2021/03/06 09:42:10;;;;;;;7.13;3.97;;;;;;;;;;5095610;28;20548;-72
2021/03/06 09:44:36;;;;;;;5.40;3.67;;;;;;;;;;5094985;28;20501;-72
2021/03/06 09:47:03;;;;;;;9.50;4.30;;;;;;;;;;5095699;28;20761;-72
2021/03/06 09:49:35;;;;;;;5.43;3.97;;;;;;;;;;5095551;28;20907;-72
2021/03/06 09:52:02;;;;;;;5.60;3.87;;;;;;;;;;5058689;28;20424;-72
2021/03/06 09:54:34;;;;;;;5.50;3.77;;;;;;;;;;5076194;28;20445;-72
2021/03/06 09:57:02;;;;;;;5.10;4.50;;;;;;;;;;5095440;28;20412;-72
2021/03/06 09:59:29;;;;;;;4.87;4.07;;;;;;;;;;5095278;28;20402;-72
2021/03/06 10:02:03;;;;;;;7.10;4.60;;;;;;;;;;5093604;28;20490;-72
2021/03/06 10:04:29;;;;;;;5.40;3.80;;;;;;;;;;5094477;28;20777;-71
2021/03/06 10:06:55;;;;;;;6.93;4.20;;;;;;;;;;5094570;28;20411;-71
2021/03/06 10:09:23;;;;;;;6.30;4.40;;;;;;;;;;5093927;28;20918;-72
2021/03/06 10:11:53;;;;;;;7.93;4.73;;;;;;;;;;5094016;28;20783;-72
2021/03/06 10:14:20;;;;;;;7.53;4.53;;;;;;;;;;5095011;28;20404;-72
2021/03/06 10:16:46;;;;;;;6.23;4.33;;;;;;;;;;5093243;28;20440;-72
2021/03/06 10:19:12;;;;;;;6.30;4.40;;;;;;;;;;5094413;28;20397;-72
2021/03/06 10:21:38;;;;;;;7.07;4.60;;;;;;;;;;5093169;28;20465;-72
2021/03/06 10:24:11;;;;;;;7.67;4.37;;;;;;;;;;5093408;28;20426;-71
2021/03/06 10:26:37;;;;;;;6.93;4.40;;;;;;;;;;5093354;28;20475;-71
2021/03/06 10:29:20;;;;;;;8.40;4.77;;;;;;;;;;5094308;28;20487;-71
2021/03/06 10:31:46;;;;;;;9.17;5.00;;;;;;;;;;5092884;28;20425;-72
2021/03/06 10:34:17;;;;;;;8.13;4.97;;;;;;;;;;5075554;28;20416;-71
2021/03/06 10:36:43;;;;;;;7.20;4.70;;;;;;;;;;5093046;28;20440;-71
2021/03/06 10:39:12;;;;;;;8.40;4.60;;;;;;;;;;5086226;28;20433;-71
2021/03/06 10:41:38;;;;;;;7.07;4.13;;;;;;;;;;5090021;28;20463;-72
2021/03/06 10:44:04;;;;;;;7.30;5.00;;;;;;;;;;5094590;28;20418;-72
2021/03/06 10:46:32;;;;;;;7.20;4.60;;;;;;;;;;5092906;28;20431;-72
2021/03/06 10:49:01;;;;;;;7.43;4.70;;;;;;;;;;5094222;28;20408;-71
2021/03/06 10:51:49;;;;;;;7.17;4.53;;;;;;;;;;5093181;28;20443;-71
2021/03/06 10:54:15;;;;;;;6.90;5.07;;;;;;;;;;5094091;28;20525;-71
2021/03/06 10:56:42;;;;;;;7.60;4.63;;;;;;;;;;5077524;28;20429;-71
2021/03/06 10:59:08;;;;;;;7.43;5.27;;;;;;;;;;5073671;28;20438;-71
2021/03/06 11:01:53;;;;;;;9.37;6.07;;;;;;;;;;5087148;28;20502;-71
2021/03/06 11:04:29;;;;;;;7.30;4.27;;;;;;;;;;5084441;28;20897;-71
2021/03/06 11:06:56;;;;;;;8.23;4.80;;;;;;;;;;5092484;28;20422;-71
2021/03/06 11:09:27;;;;;;;5.10;3.90;;;;;;;;;;5093561;28;20452;-71
2021/03/06 11:11:53;;;;;;;6.83;4.77;;;;;;;;;;5092457;28;20443;-71
2021/03/06 11:14:26;;;;;;;6.10;4.53;;;;;;;;;;5090573;28;20933;-71
2021/03/06 11:16:52;;;;;;;6.40;4.27;;;;;;;;;;5092282;28;20508;-71
2021/03/06 11:19:18;;;;;;;6.73;4.70;;;;;;;;;;5093100;28;20408;-71
2021/03/06 11:21:44;;;;;;;5.80;4.20;;;;;;;;;;5092127;28;20460;-71
2021/03/06 11:24:10;;;;;;;8.00;5.20;;;;;;;;;;5093116;28;20416;-72
2021/03/06 11:26:37;;;;;;;8.70;4.77;;;;;;;;;;5092453;28;20463;-71
2021/03/06 11:29:04;;;;;;;5.80;3.97;;;;;;;;;;5093002;28;20441;-72
2021/03/06 11:31:31;;;;;;;7.70;4.17;;;;;;;;;;5091978;28;20426;-71
2021/03/06 11:33:57;;;;;;;8.80;4.40;;;;;;;;;;5092968;28;20417;-71
2021/03/06 11:36:23;;;;;;;5.20;3.87;;;;;;;;;;5092327;28;20433;-71
2021/03/06 11:38:50;;;;;;;6.50;4.33;;;;;;;;;;5092793;28;20415;-72
2021/03/06 11:41:16;;;;;;;6.97;4.37;;;;;;;;;;5092165;28;20475;-71
2021/03/06 11:43:43;;;;;;;5.10;4.13;;;;;;;;;;5074111;28;20828;-71
2021/03/06 11:46:09;;;;;;;8.07;4.00;;;;;;;;;;5090212;28;20890;-71
2021/03/06 11:48:35;;;;;;;7.60;4.90;;;;;;;;;;5092961;28;20767;-71
2021/03/06 11:51:01;;;;;;;5.90;4.37;;;;;;;;;;5091597;28;20517;-71
2021/03/06 11:53:27;;;;;;;7.23;3.97;;;;;;;;;;5092555;28;20510;-71
2021/03/06 11:55:53;;;;;;;5.70;3.90;;;;;;;;;;5091786;28;20439;-71
2021/03/06 11:58:19;;;;;;;8.60;4.90;;;;;;;;;;5092908;28;20400;-71
2021/03/06 12:00:45;;;;;;;7.60;5.33;;;;;;;;;;5091714;28;20963;-71
2021/03/06 12:03:11;;;;;;;6.70;4.73;;;;;;;;;;5092448;28;20431;-72
2021/03/06 12:05:37;;;;;;;8.07;4.77;;;;;;;;;;5091695;28;20466;-71
2021/03/06 12:08:03;;;;;;;9.13;5.70;;;;;;;;;;5091794;28;20427;-71
2021/03/06 12:10:30;;;;;;;6.73;4.43;;;;;;;;;;5073461;28;20959;-72
2021/03/06 12:12:56;;;;;;;5.00;4.00;;;;;;;;;;5092730;28;20464;-72
2021/03/06 12:15:22;;;;;;;9.23;4.67;;;;;;;;;;5091752;28;20568;-70
2021/03/06 12:17:49;;;;;;;6.03;4.30;;;;;;;;;;5091719;28;20577;-70
2021/03/06 12:20:16;;;;;;;7.47;4.17;;;;;;;;;;5091469;28;20420;-70
2021/03/06 12:22:42;;;;;;;8.47;4.50;;;;;;;;;;5092159;28;20952;-70
2021/03/06 12:25:09;;;;;;;5.27;3.90;;;;;;;;;;5091158;28;20460;-70
2021/03/06 12:27:36;;;;;;;6.30;4.90;;;;;;;;;;5092168;28;20757;-69
2021/03/06 12:30:06;;;;;;;7.03;4.70;;;;;;;;;;5091773;28;20412;-70
2021/03/06 12:32:33;;;;;;;6.43;4.17;;;;;;;;;;5074493;28;20473;-70
2021/03/06 12:34:59;;;;;;;5.33;4.50;;;;;;;;;;5091196;28;20495;-70
2021/03/06 12:37:25;;;;;;;5.40;4.10;;;;;;;;;;5092233;28;20495;-69
2021/03/06 12:39:51;;;;;;;5.70;3.80;;;;;;;;;;5092184;28;20432;-70
2021/03/06 12:42:17;;;;;;;6.67;4.40;;;;;;;;;;5091021;28;20478;-69
2021/03/06 12:44:43;;;;;;;7.00;4.27;;;;;;;;;;5092272;28;20464;-69
2021/03/06 12:47:10;;;;;;;4.60;3.90;;;;;;;;;;5089244;28;20857;-70
2021/03/06 12:49:36;;;;;;;5.10;3.93;;;;;;;;;;5091882;28;20410;-69
2021/03/06 12:52:02;;;;;;;7.20;5.40;;;;;;;;;;5084281;28;21058;-76
2021/03/06 12:54:29;;;;;;;5.77;4.40;;;;;;;;;;5092414;28;20413;-68
2021/03/06 12:56:55;;;;;;;6.67;4.70;;;;;;;;;;5092989;28;20474;-72
2021/03/06 12:59:21;;;;;;;6.20;4.60;;;;;;;;;;5095127;28;20858;-70
2021/03/06 13:01:47;;;;;;;6.88;4.40;;;;;;;;;;5093007;28;20474;-71
2021/03/06 13:04:13;;;;;;;7.93;4.47;;;;;;;;;;5076890;28;20170;-72
2021/03/06 13:06:39;;;;;;;7.30;4.53;;;;;;;;;;5094628;28;20423;-71
2021/03/06 13:09:05;;;;;;;7.60;4.63;;;;;;;;;;5095647;28;20406;-72
2021/03/06 13:11:31;;;;;;;6.47;4.20;;;;;;;;;;5095262;28;20434;-71
2021/03/06 13:13:57;;;;;;;6.53;4.53;;;;;;;;;;5095955;28;20400;-72
2021/03/06 13:16:23;;;;;;;7.07;4.77;;;;;;;;;;5094892;28;20457;-72
2021/03/06 13:18:49;;;;;;;7.23;4.40;;;;;;;;;;5096137;28;20404;-70
2021/03/06 13:21:16;;;;;;;7.07;5.10;;;;;;;;;;5094913;28;20591;-70
2021/03/06 13:23:42;;;;;;;6.23;4.20;;;;;;;;;;5094787;28;20411;-72
2021/03/06 13:26:08;;;;;;;6.07;4.57;;;;;;;;;;5094409;28;20567;-72
2021/03/06 13:28:34;;;;;;;6.70;4.57;;;;;;;;;;5095605;28;20388;-71
2021/03/06 13:31:01;;;;;;;6.20;4.20;;;;;;;;;;5094387;28;20416;-72
2021/03/06 13:33:27;;;;;;;7.37;3.90;;;;;;;;;;5095522;28;20421;-72
2021/03/06 13:35:53;;;;;;;6.90;4.20;;;;;;;;;;5094510;28;20423;-74
2021/03/06 13:38:19;;;;;;;6.80;4.70;;;;;;;;;;5095240;28;20412;-74
2021/03/06 13:40:45;;;;;;;6.30;4.40;;;;;;;;;;5090625;28;20906;-74
2021/03/06 13:43:11;;;;;;;5.73;4.13;;;;;;;;;;5094886;28;20475;-73
2021/03/06 13:45:37;;;;;;;9.57;5.37;;;;;;;;;;5093499;28;20474;-74
2021/03/06 13:48:04;;;;;;;5.70;4.30;;;;;;;;;;5094550;28;20411;-73
2021/03/06 13:50:30;;;;;;;8.10;4.63;;;;;;;;;;5094368;28;20398;-74
2021/03/06 13:52:57;;;;;;;5.60;3.90;;;;;;;;;;5094136;28;20782;-73
2021/03/06 13:55:23;;;;;;;7.40;4.43;;;;;;;;;;5094118;28;20406;-74
2021/03/06 13:57:49;;;;;;;5.73;4.27;;;;;;;;;;5093823;28;20436;-73
2021/03/06 14:00:16;;;;;;;9.17;4.70;;;;;;;;;;5092689;28;20425;-73
2021/03/06 14:02:42;;;;;;;6.87;3.93;;;;;;;;;;5093607;28;20465;-73
2021/03/06 14:05:08;;;;;;;5.40;4.03;;;;;;;;;;5094871;28;20408;-73
2021/03/06 14:07:34;;;;;;;7.13;5.10;;;;;;;;;;5091604;28;20431;-74
2021/03/06 14:10:00;;;;;;;5.30;4.10;;;;;;;;;;5093699;28;20414;-74
2021/03/06 14:12:26;;;;;;;7.97;4.50;;;;;;;;;;5093541;28;20455;-73
2021/03/06 14:14:52;;;;;;;5.17;4.10;;;;;;;;;;5094687;28;20885;-73
2021/03/06 14:17:18;;;;;;;6.10;4.03;;;;;;;;;;5093476;28;20509;-73
2021/03/06 14:19:44;;;;;;;5.77;4.27;;;;;;;;;;5094542;28;20425;-73
2021/03/06 14:22:10;;;;;;;7.37;4.47;;;;;;;;;;5093417;28;20558;-73
2021/03/06 14:24:36;;;;;;;5.23;4.13;;;;;;;;;;5094383;28;20414;-73
2021/03/06 14:27:03;;;;;;;5.00;4.13;;;;;;;;;;5075401;28;20433;-73
2021/03/06 14:29:29;;;;;;;6.40;4.37;;;;;;;;;;5094390;28;20732;-73
2021/03/06 14:31:55;;;;;;;4.70;3.97;;;;;;;;;;5075427;28;20445;-73
2021/03/06 14:34:21;;;;;;;6.33;3.90;;;;;;;;;;5094424;28;20413;-73
2021/03/06 14:36:47;;;;;;;6.77;4.63;;;;;;;;;;5093236;28;20439;-73
2021/03/06 14:39:14;;;;;;;7.47;4.83;;;;;;;;;;5094277;28;20410;-73
2021/03/06 14:41:40;;;;;;;6.27;4.30;;;;;;;;;;5074846;28;20541;-74
2021/03/06 14:44:07;;;;;;;6.33;4.27;;;;;;;;;;5104235;22;20913;-65